createdAt,value
2023-04-01T00:00:57.621Z,11.13
2023-04-01T00:03:45.225Z,11.13
2023-04-01T00:06:31.648Z,11.10
2023-04-01T00:09:18.505Z,10.13
2023-04-01T00:12:08.635Z,9.01
2023-04-01T00:14:55.193Z,8.23
2023-04-01T00:17:41.651Z,8.72
2023-04-01T00:20:29.343Z,9.58
2023-04-01T00:23:17.014Z,10.14
2023-04-01T00:26:04.593Z,10.42
2023-04-01T00:28:51.634Z,10.50
2023-04-01T00:31:38.164Z,10.66
2023-04-01T00:34:24.479Z,10.80
2023-04-01T00:37:11.836Z,10.95
2023-04-01T00:39:58.335Z,10.73
2023-04-01T00:42:45.040Z,9.59
2023-04-01T00:45:35.459Z,8.79
2023-04-01T00:48:46.971Z,9.37
2023-04-01T00:51:35.909Z,10.01
2023-04-01T00:54:25.775Z,10.34
2023-04-01T00:57:41.500Z,10.55
2023-04-01T01:00:28.227Z,10.71
2023-04-01T01:03:15.127Z,10.80
2023-04-01T01:06:27.715Z,10.93
2023-04-01T01:09:20.153Z,10.53
2023-04-01T01:12:26.190Z,9.19
2023-04-01T01:15:33.696Z,8.05
2023-04-01T01:18:55.055Z,7.80
2023-04-01T01:22:05.387Z,8.88
2023-04-01T01:25:22.159Z,9.52
2023-04-01T01:28:29.190Z,9.94
2023-04-01T01:31:39.827Z,10.18
2023-04-01T01:35:10.704Z,10.45
2023-04-01T01:38:13.993Z,10.48
2023-04-01T01:41:06.949Z,9.84
2023-04-01T01:43:57.367Z,8.52
2023-04-01T01:46:45.833Z,7.64
2023-04-01T01:49:36.027Z,8.22
2023-04-01T01:52:24.798Z,8.95
2023-04-01T01:55:31.262Z,9.41
2023-04-01T01:58:40.740Z,9.71
2023-04-01T02:01:34.202Z,9.93
2023-04-01T02:04:27.606Z,10.11
2023-04-01T02:07:25.544Z,10.29
2023-04-01T02:10:12.384Z,9.92
2023-04-01T02:13:07.093Z,8.70
2023-04-01T02:15:57.630Z,7.75
2023-04-01T02:18:48.665Z,8.32
2023-04-01T02:21:37.552Z,9.11
2023-04-01T02:24:27.306Z,9.58
2023-04-01T02:27:13.761Z,9.85
2023-04-01T02:30:00.409Z,10.08
2023-04-01T02:32:47.721Z,10.25
2023-04-01T02:35:37.697Z,10.37
2023-04-01T02:38:24.824Z,10.51
2023-04-01T02:41:12.239Z,10.55
2023-04-01T02:43:59.845Z,10.60
2023-04-01T02:46:47.203Z,10.66
2023-04-01T02:49:33.732Z,10.33
2023-04-01T02:52:20.549Z,9.08
2023-04-01T02:55:08.133Z,7.98
2023-04-01T02:57:55.654Z,7.58
2023-04-01T03:00:51.027Z,8.39
2023-04-01T03:03:41.186Z,9.08
2023-04-01T03:06:27.713Z,9.50
2023-04-01T03:09:14.864Z,9.84
2023-04-01T03:12:01.479Z,10.13
2023-04-01T03:14:53.703Z,10.38
2023-04-01T03:17:41.698Z,10.51
2023-04-01T03:20:28.521Z,10.63
2023-04-01T03:23:17.686Z,10.76
2023-04-01T03:26:04.063Z,10.84
2023-04-01T03:28:55.944Z,10.93
2023-04-01T03:31:42.758Z,10.85
2023-04-01T03:34:29.663Z,9.87
2023-04-01T03:37:16.455Z,8.58
2023-04-01T03:40:03.301Z,7.98
2023-04-01T03:42:51.078Z,8.79
2023-04-01T03:45:44.868Z,9.49
2023-04-01T03:48:31.288Z,9.93
2023-04-01T03:51:17.689Z,10.20
2023-04-01T03:54:04.134Z,10.36
2023-04-01T03:56:50.785Z,10.00
2023-04-01T03:59:37.461Z,8.76
2023-04-01T04:02:25.889Z,8.01
2023-04-01T04:05:13.921Z,8.66
2023-04-01T04:08:00.221Z,9.23
2023-04-01T04:10:46.826Z,9.72
2023-04-01T04:13:34.226Z,10.02
2023-04-01T04:16:21.355Z,10.21
2023-04-01T04:19:13.444Z,10.32
2023-04-01T04:22:01.782Z,10.46
2023-04-01T04:24:48.629Z,10.61
2023-04-01T04:27:35.602Z,10.72
2023-04-01T04:32:33.920Z,10.57
2023-04-01T04:35:22.184Z,9.37
2023-04-01T04:38:10.596Z,8.24
2023-04-01T04:40:59.681Z,8.42
2023-04-01T04:43:57.161Z,9.16
2023-04-01T04:46:46.087Z,9.60
2023-04-01T04:49:35.762Z,9.80
2023-04-01T04:52:27.526Z,9.88
2023-04-01T04:55:16.356Z,10.05
2023-04-01T04:58:06.228Z,10.17
2023-04-01T05:00:54.992Z,10.19
2023-04-01T05:03:50.126Z,10.14
2023-04-01T05:06:38.511Z,10.15
2023-04-01T05:09:26.837Z,9.70
2023-04-01T05:12:16.737Z,8.51
2023-04-01T05:15:22.188Z,8.40
2023-04-01T05:18:10.784Z,9.05
2023-04-01T05:20:59.482Z,9.47
2023-04-01T05:23:47.630Z,9.67
2023-04-01T05:26:36.317Z,9.80
2023-04-01T05:29:26.803Z,9.77
2023-04-01T05:32:26.469Z,9.88
2023-04-01T05:35:15.168Z,9.93
2023-04-01T05:38:04.375Z,9.99
2023-04-01T05:41:00.501Z,10.02
2023-04-01T05:43:49.051Z,10.03
2023-04-01T05:46:57.501Z,10.00
2023-04-01T05:49:47.460Z,10.09
2023-04-01T05:52:36.221Z,10.05
2023-04-01T05:55:24.494Z,9.99
2023-04-01T05:58:13.373Z,9.95
2023-04-01T06:01:10.379Z,10.03
2023-04-01T06:04:03.810Z,10.14
2023-04-01T06:06:53.140Z,10.09
2023-04-01T06:09:42.491Z,10.00
2023-04-01T06:13:12.220Z,9.94
2023-04-01T06:16:51.848Z,9.91
2023-04-01T06:19:48.142Z,10.05
2023-04-01T06:23:21.088Z,10.18
2023-04-01T06:26:36.099Z,10.22
2023-04-01T06:30:01.287Z,10.07
2023-04-01T06:33:16.903Z,10.02
2023-04-01T06:36:57.881Z,10.08
2023-04-01T06:40:24.520Z,10.03
2023-04-01T06:44:06.471Z,10.09
2023-04-01T06:48:00.234Z,10.08
2023-04-01T06:51:51.677Z,10.17
2023-04-01T06:55:41.788Z,10.18
2023-04-01T06:58:47.672Z,10.19
2023-04-01T07:01:45.516Z,10.22
2023-04-01T07:04:44.502Z,10.12
2023-04-01T07:07:49.647Z,9.05
2023-04-01T07:11:03.322Z,8.20
2023-04-01T07:14:32.116Z,8.84
2023-04-01T07:17:35.512Z,9.18
2023-04-01T07:20:32.691Z,9.45
2023-04-01T07:23:34.038Z,9.62
2023-04-01T07:26:31.759Z,9.69
2023-04-01T07:29:34.531Z,9.81
2023-04-01T07:32:51.413Z,9.87
2023-04-01T07:35:46.195Z,10.00
2023-04-01T07:38:54.269Z,10.05
2023-04-01T07:42:20.599Z,10.03
2023-04-01T07:45:43.382Z,9.88
2023-04-01T07:49:21.606Z,10.04
2023-04-01T07:53:03.158Z,9.62
2023-04-01T07:56:11.577Z,8.24
2023-04-01T07:59:10.883Z,8.63
2023-04-01T08:02:49.352Z,9.17
2023-04-01T08:06:02.214Z,9.34
2023-04-01T08:09:00.102Z,9.51
2023-04-01T08:12:30.638Z,9.75
2023-04-01T08:16:14.232Z,9.85
2023-04-01T08:20:02.560Z,9.85
2023-04-01T08:23:13.684Z,9.87
2023-04-01T08:26:30.895Z,9.80
2023-04-01T08:29:25.501Z,9.60
2023-04-01T08:32:29.830Z,9.47
2023-04-01T08:35:39.576Z,9.48
2023-04-01T08:38:34.775Z,9.37
2023-04-01T08:41:26.484Z,9.51
2023-04-01T08:45:12.013Z,9.46
2023-04-01T08:48:36.677Z,9.53
2023-04-01T08:51:50.278Z,9.63
2023-04-01T08:55:28.796Z,9.57
2023-04-01T08:58:54.257Z,9.76
2023-04-01T09:02:36.969Z,9.98
2023-04-01T09:06:08.643Z,10.04
2023-04-01T09:08:59.973Z,10.22
2023-04-01T09:12:16.265Z,10.12
2023-04-01T09:15:31.696Z,8.99
2023-04-01T09:19:01.056Z,8.31
2023-04-01T09:22:11.214Z,9.07
2023-04-01T09:25:53.987Z,9.62
2023-04-01T09:29:17.658Z,9.99
2023-04-01T09:32:38.021Z,10.10
2023-04-01T09:35:54.155Z,10.06
2023-04-01T09:38:57.533Z,9.90
2023-04-01T09:41:56.726Z,8.68
2023-04-01T09:45:16.814Z,8.79
2023-04-01T09:48:20.419Z,9.42
2023-04-01T09:51:42.787Z,9.59
2023-04-01T09:55:24.342Z,9.75
2023-04-01T09:58:32.783Z,9.67
2023-04-01T10:02:15.411Z,9.81
2023-04-01T10:05:36.335Z,9.83
2023-04-01T10:09:11.256Z,9.73
2023-04-01T10:12:21.940Z,9.75
2023-04-01T10:15:34.784Z,9.72
2023-04-01T10:19:17.975Z,9.78
2023-04-01T10:22:36.977Z,9.38
2023-04-01T10:25:43.998Z,8.05
2023-04-01T10:28:55.644Z,8.25
2023-04-01T10:32:18.889Z,8.78
2023-04-01T10:35:40.786Z,9.00
2023-04-01T10:38:56.547Z,9.26
2023-04-01T10:42:26.760Z,9.30
2023-04-01T10:45:50.854Z,9.68
2023-04-01T10:49:21.583Z,9.68
2023-04-01T10:52:47.432Z,9.67
2023-04-01T10:56:41.485Z,9.51
2023-04-01T11:00:31.074Z,9.61
2023-04-01T11:04:25.814Z,9.76
2023-04-01T11:08:20.736Z,9.06
2023-04-01T11:11:37.026Z,7.85
2023-04-01T11:14:43.395Z,8.29
2023-04-01T11:17:53.849Z,8.78
2023-04-01T11:21:31.448Z,9.06
2023-04-01T11:25:06.695Z,9.13
2023-04-01T11:28:11.248Z,9.34
2023-04-01T11:32:06.439Z,9.49
2023-04-01T11:35:41.271Z,9.45
2023-04-01T11:39:21.768Z,9.21
2023-04-01T11:43:19.989Z,7.58
2023-04-01T11:47:30.099Z,7.99
2023-04-01T11:51:12.871Z,8.64
2023-04-01T11:54:49.668Z,8.87
2023-04-01T11:58:23.741Z,9.21
2023-04-01T12:01:43.538Z,9.53
2023-04-01T12:05:09.587Z,9.38
2023-04-01T12:08:23.938Z,8.03
2023-04-01T12:11:36.569Z,8.06
2023-04-01T12:15:01.833Z,8.64
2023-04-01T12:17:59.408Z,9.06
2023-04-01T12:21:07.501Z,9.29
2023-04-01T12:24:26.979Z,9.41
2023-04-01T12:27:20.585Z,9.29
2023-04-01T12:30:37.152Z,9.36
2023-04-01T12:33:49.333Z,9.42
2023-04-01T12:37:09.848Z,9.34
2023-04-01T12:40:04.759Z,9.21
2023-04-01T12:43:28.868Z,7.95
2023-04-01T12:46:51.834Z,7.76
2023-04-01T12:50:23.214Z,8.39
2023-04-01T12:53:45.653Z,8.89
2023-04-01T12:56:52.782Z,9.13
2023-04-01T13:00:24.498Z,9.16
2023-04-01T13:03:23.704Z,9.11
2023-04-01T13:06:42.347Z,8.09
2023-04-01T13:10:08.261Z,7.34
2023-04-01T13:13:24.776Z,8.04
2023-04-01T13:16:52.178Z,8.49
2023-04-01T13:20:06.536Z,8.80
2023-04-01T13:23:16.733Z,8.93
2023-04-01T13:26:35.736Z,8.53
2023-04-01T13:29:37.234Z,7.27
2023-04-01T13:32:52.630Z,7.66
2023-04-01T13:36:06.332Z,8.32
2023-04-01T13:39:22.476Z,8.62
2023-04-01T13:42:37.206Z,8.75
2023-04-01T13:45:53.469Z,8.91
2023-04-01T13:48:56.987Z,8.72
2023-04-01T13:52:21.280Z,7.43
2023-04-01T13:55:33.072Z,7.52
2023-04-01T13:58:39.397Z,8.08
2023-04-01T14:02:18.469Z,8.53
2023-04-01T14:05:57.705Z,8.83
2023-04-01T14:08:51.286Z,8.99
2023-04-01T14:11:59.455Z,8.93
2023-04-01T14:15:22.820Z,7.76
2023-04-01T14:19:06.474Z,6.98
2023-04-01T14:22:13.488Z,7.72
2023-04-01T14:25:37.055Z,8.10
2023-04-01T14:29:15.599Z,8.43
2023-04-01T14:32:39.204Z,8.58
2023-04-01T14:35:37.334Z,8.64
2023-04-01T14:38:56.307Z,8.63
2023-04-01T14:42:29.827Z,8.43
2023-04-01T14:45:56.394Z,6.94
2023-04-01T14:48:44.916Z,6.85
2023-04-01T14:51:42.424Z,7.33
2023-04-01T14:54:45.214Z,7.52
2023-04-01T14:57:36.223Z,7.71
2023-04-01T15:00:26.307Z,7.92
2023-04-01T15:03:27.264Z,8.08
2023-04-01T15:06:39.832Z,8.33
2023-04-01T15:09:58.518Z,8.30
2023-04-01T15:13:16.386Z,8.21
2023-04-01T15:17:16.048Z,8.35
2023-04-01T15:20:27.282Z,8.28
2023-04-01T15:24:00.221Z,8.39
2023-04-01T15:27:14.001Z,8.25
2023-04-01T15:30:46.072Z,7.00
2023-04-01T15:33:51.398Z,6.96
2023-04-01T15:37:46.624Z,7.50
2023-04-01T15:41:03.493Z,7.78
2023-04-01T15:43:53.486Z,7.96
2023-04-01T15:46:49.114Z,8.11
2023-04-01T15:49:48.451Z,8.31
2023-04-01T15:53:07.929Z,8.36
2023-04-01T15:56:45.526Z,8.20
2023-04-01T16:00:15.875Z,8.01
2023-04-01T16:03:35.453Z,6.56
2023-04-01T16:06:44.897Z,6.76
2023-04-01T16:10:11.190Z,7.22
2023-04-01T16:13:44.107Z,7.59
2023-04-01T16:17:14.064Z,7.64
2023-04-01T16:20:11.391Z,7.86
2023-04-01T16:23:02.901Z,7.98
2023-04-01T16:26:31.469Z,8.02
2023-04-01T16:29:41.661Z,8.09
2023-04-01T16:32:42.836Z,8.20
2023-04-01T16:36:08.012Z,7.96
2023-04-01T16:39:19.538Z,6.61
2023-04-01T16:43:06.985Z,6.71
2023-04-01T16:46:07.141Z,7.21
2023-04-01T16:49:13.928Z,7.45
2023-04-01T16:52:12.042Z,7.61
2023-04-01T16:55:13.902Z,7.68
2023-04-01T16:58:02.772Z,7.66
2023-04-01T17:01:02.091Z,7.79
2023-04-01T17:04:41.408Z,7.42
2023-04-01T17:08:09.279Z,6.51
2023-04-01T17:11:29.269Z,7.06
2023-04-01T17:14:58.783Z,7.46
2023-04-01T17:18:20.232Z,7.60
2023-04-01T17:21:26.078Z,7.63
2023-04-01T17:24:57.915Z,8.05
2023-04-01T17:27:49.040Z,7.74
2023-04-01T17:30:54.645Z,6.51
2023-04-01T17:34:18.171Z,5.66
2023-04-01T17:37:39.395Z,6.56
2023-04-01T17:40:55.002Z,7.31
2023-04-01T17:44:20.404Z,7.90
2023-04-01T17:47:19.560Z,8.19
2023-04-01T17:50:48.008Z,8.11
2023-04-01T17:54:28.030Z,6.78
2023-04-01T17:57:45.059Z,5.65
2023-04-01T18:01:00.961Z,6.14
2023-04-01T18:04:24.738Z,6.91
2023-04-01T18:07:36.841Z,7.23
2023-04-01T18:10:50.998Z,7.32
2023-04-01T18:14:13.384Z,7.48
2023-04-01T18:17:28.266Z,7.68
2023-04-01T18:20:40.836Z,7.86
2023-04-01T18:24:01.586Z,7.92
2023-04-01T18:27:13.944Z,6.72
2023-04-01T18:30:15.962Z,6.12
2023-04-01T18:33:06.154Z,6.85
2023-04-01T18:36:39.723Z,7.24
2023-04-01T18:39:47.766Z,7.54
2023-04-01T18:42:51.074Z,7.61
2023-04-01T18:55:05.711Z,7.71
2023-04-01T18:58:19.100Z,7.71
2023-04-01T19:01:49.875Z,7.65
2023-04-01T19:04:51.556Z,7.66
2023-04-01T19:07:42.602Z,7.68
2023-04-01T19:11:03.813Z,7.64
2023-04-01T19:14:28.922Z,7.67
2023-04-01T19:18:16.263Z,7.62
2023-04-01T19:21:31.356Z,7.71
2023-04-01T19:24:52.343Z,7.70
2023-04-01T19:27:46.370Z,7.74
2023-04-01T19:30:52.133Z,7.71
2023-04-01T19:34:19.781Z,7.64
2023-04-01T19:38:02.795Z,7.50
2023-04-01T19:41:20.344Z,7.40
2023-04-01T19:44:52.696Z,7.56
2023-04-01T19:48:39.725Z,7.73
2023-04-01T19:51:55.003Z,7.80
2023-04-01T19:55:22.194Z,7.37
2023-04-01T19:58:32.580Z,6.08
2023-04-01T20:01:45.108Z,6.43
2023-04-01T20:04:43.315Z,7.08
2023-04-01T20:07:44.577Z,7.40
2023-04-01T20:10:42.945Z,7.53
2023-04-01T20:13:48.319Z,7.57
2023-04-01T20:17:28.340Z,7.76
2023-04-01T20:20:27.637Z,7.70
2023-04-01T20:23:31.374Z,7.64
2023-04-01T20:26:33.648Z,6.64
2023-04-01T20:29:58.390Z,5.80
2023-04-01T20:33:32.880Z,6.61
2023-04-01T20:37:30.887Z,7.10
2023-04-01T20:40:48.000Z,7.24
2023-04-01T20:43:59.100Z,7.24
2023-04-01T20:47:31.157Z,7.24
2023-04-01T20:50:39.661Z,7.28
2023-04-01T20:53:35.893Z,7.39
2023-04-01T20:56:42.491Z,7.18
2023-04-01T21:00:08.637Z,6.02
2023-04-01T21:03:37.306Z,6.12
2023-04-01T21:06:50.300Z,6.70
2023-04-01T21:09:52.605Z,7.00
2023-04-01T21:12:51.503Z,7.17
2023-04-01T21:15:49.728Z,7.30
2023-04-01T21:18:58.815Z,7.43
2023-04-01T21:22:14.102Z,6.86
2023-04-01T21:25:23.545Z,5.34
2023-04-01T21:28:59.113Z,5.43
2023-04-01T21:32:15.099Z,6.11
2023-04-01T21:35:21.165Z,6.52
2023-04-01T21:39:05.511Z,6.82
2023-04-01T21:42:17.461Z,6.91
2023-04-01T21:46:02.660Z,7.09
2023-04-01T21:49:17.672Z,6.89
2023-04-01T21:53:07.372Z,6.72
2023-04-01T21:56:56.613Z,6.98
2023-04-01T22:00:11.882Z,7.11
2023-04-01T22:03:31.846Z,7.00
2023-04-01T22:06:46.153Z,6.95
2023-04-01T22:09:58.473Z,7.08
2023-04-01T22:19:54.820Z,6.63
2023-04-01T22:23:07.520Z,5.82
2023-04-01T22:26:34.141Z,6.06
2023-04-01T22:30:08.725Z,6.14
2023-04-01T22:33:18.997Z,6.23
2023-04-01T22:36:57.533Z,6.27
2023-04-01T22:39:51.890Z,6.45
2023-04-01T22:43:16.827Z,6.52
2023-04-01T22:46:23.576Z,6.66
2023-04-01T22:49:38.444Z,6.68
2023-04-01T22:52:45.951Z,6.56
2023-04-01T22:55:39.313Z,6.57
2023-04-01T22:58:58.742Z,6.44
2023-04-01T23:02:30.498Z,6.35
2023-04-01T23:05:21.971Z,6.37
2023-04-01T23:08:34.954Z,6.27
2023-04-01T23:11:44.736Z,6.03
2023-04-01T23:14:49.196Z,6.09
2023-04-01T23:18:10.326Z,6.14
2023-04-01T23:21:19.676Z,6.06
2023-04-01T23:24:27.882Z,6.00
2023-04-01T23:27:29.061Z,6.13
2023-04-01T23:30:39.907Z,6.21
2023-04-01T23:33:31.908Z,6.23
2023-04-01T23:36:20.012Z,6.17
2023-04-01T23:39:19.151Z,6.33
2023-04-01T23:42:28.845Z,6.44
2023-04-01T23:45:21.805Z,6.51
2023-04-01T23:48:16.999Z,6.39
2023-04-01T23:51:29.454Z,6.18
2023-04-01T23:54:32.838Z,6.38
2023-04-01T23:57:29.846Z,6.38
